Weather at Tucson International Airport / Morris Air National Guard Base

Public forecast

Using degrees Fahrenheit for public forecast. Weather courtesy of forecast.io.

Current aviation weather report (METAR) for Tucson International Airport / Morris Air National Guard Base

Retrieved 2021/04/14 18:53 UTC (31 minutes ago):

KTUS 141853Z 29009G18KT 10SM CLR 28/M09 A2991 RMK AO2 SLP085 T02781094

Aviation forecast (TAF) for Tucson International Airport / Morris Air National Guard Base

Retrieved 2021/04/14 18:42 UTC (42 minutes ago):

TAF KTUS 141740Z 1418/1518 22009KT P6SM FEW250 FM141900 22011G18KT P6SM FEW250 FM150900 16005KT P6SM SCT250 FM151700 25010G17KT P6SM SCT250